sensor_id;sensor_type;location;lat;lon;timestamp;pressure;altitude;pressure_sealevel;temperature;humidity
78673;BME280;67988;60.086;30.354;2023-03-31T00:01:34;100731.38;;;-0.45;72.33
78673;BME280;67988;60.086;30.354;2023-03-31T00:04:02;100731.56;;;-0.51;72.38
78673;BME280;67988;60.086;30.354;2023-03-31T00:06:29;100736.69;;;-0.48;72.38
78673;BME280;67988;60.086;30.354;2023-03-31T00:08:57;100734.88;;;-0.46;71.94
78673;BME280;67988;60.086;30.354;2023-03-31T00:11:27;100734.66;;;-0.38;71.82
78673;BME280;67988;60.086;30.354;2023-03-31T00:13:54;100739.22;;;-0.45;72.09
78673;BME280;67988;60.086;30.354;2023-03-31T00:16:21;100730.94;;;-0.59;72.59
78673;BME280;67988;60.086;30.354;2023-03-31T00:18:49;100731.09;;;-0.64;72.80
78673;BME280;67988;60.086;30.354;2023-03-31T00:21:19;100726.69;;;-0.62;72.84
78673;BME280;67988;60.086;30.354;2023-03-31T00:24:00;100726.22;;;-0.48;72.51
78673;BME280;67988;60.086;30.354;2023-03-31T00:26:28;100722.16;;;-0.57;72.80
78673;BME280;67988;60.086;30.354;2023-03-31T00:28:55;100715.03;;;-0.52;72.58
78673;BME280;67988;60.086;30.354;2023-03-31T00:31:23;100714.47;;;-0.61;73.06
78673;BME280;67988;60.086;30.354;2023-03-31T00:33:50;100712.47;;;-0.53;72.75
78673;BME280;67988;60.086;30.354;2023-03-31T00:36:18;100717.50;;;-0.47;72.71
78673;BME280;67988;60.086;30.354;2023-03-31T00:38:52;100707.03;;;-0.47;72.80
78673;BME280;67988;60.086;30.354;2023-03-31T00:41:19;100712.22;;;-0.46;72.73
78673;BME280;67988;60.086;30.354;2023-03-31T00:44:04;100695.91;;;-0.54;72.93
78673;BME280;67988;60.086;30.354;2023-03-31T00:46:33;100707.78;;;-0.44;72.60
78673;BME280;67988;60.086;30.354;2023-03-31T00:49:03;100690.22;;;-0.38;72.43
78673;BME280;67988;60.086;30.354;2023-03-31T00:51:32;100695.72;;;-0.48;72.62
78673;BME280;67988;60.086;30.354;2023-03-31T00:54:03;100684.25;;;-0.44;72.48
78673;BME280;67988;60.086;30.354;2023-03-31T00:56:36;100685.13;;;-0.43;72.42
78673;BME280;67988;60.086;30.354;2023-03-31T00:59:07;100686.28;;;-0.52;72.76
78673;BME280;67988;60.086;30.354;2023-03-31T01:01:36;100687.34;;;-0.57;73.16
78673;BME280;67988;60.086;30.354;2023-03-31T01:04:07;100686.28;;;-0.52;72.66
78673;BME280;67988;60.086;30.354;2023-03-31T01:06:41;100677.53;;;-0.51;72.61
78673;BME280;67988;60.086;30.354;2023-03-31T01:09:13;100677.53;;;-0.51;72.77
78673;BME280;67988;60.086;30.354;2023-03-31T01:11:41;100671.50;;;-0.53;72.95
78673;BME280;67988;60.086;30.354;2023-03-31T01:14:11;100675.00;;;-0.54;72.95
78673;BME280;67988;60.086;30.354;2023-03-31T01:16:38;100674.13;;;-0.53;72.65
78673;BME280;67988;60.086;30.354;2023-03-31T01:19:07;100673.53;;;-0.61;73.08
78673;BME280;67988;60.086;30.354;2023-03-31T01:22:02;100678.75;;;-0.61;73.31
78673;BME280;67988;60.086;30.354;2023-03-31T01:25:08;100671.84;;;-0.63;73.37
78673;BME280;67988;60.086;30.354;2023-03-31T01:28:07;100666.63;;;-0.63;73.37
78673;BME280;67988;60.086;30.354;2023-03-31T01:37:26;100631.81;;;-0.64;73.44
78673;BME280;67988;60.086;30.354;2023-03-31T01:40:15;100651.56;;;-0.55;73.53
78673;BME280;67988;60.086;30.354;2023-03-31T01:42:50;100653.91;;;-0.48;73.23
78673;BME280;67988;60.086;30.354;2023-03-31T01:45:25;100648.97;;;-0.55;73.58
78673;BME280;67988;60.086;30.354;2023-03-31T01:47:56;100647.91;;;-0.50;73.33
78673;BME280;67988;60.086;30.354;2023-03-31T01:50:28;100654.75;;;-0.47;73.37
78673;BME280;67988;60.086;30.354;2023-03-31T01:53:02;100643.72;;;-0.55;73.63
78673;BME280;67988;60.086;30.354;2023-03-31T01:55:35;100645.47;;;-0.56;73.89
78673;BME280;67988;60.086;30.354;2023-03-31T01:58:08;100638.75;;;-0.63;73.87
78673;BME280;67988;60.086;30.354;2023-03-31T02:00:40;100637.72;;;-0.59;73.85
78673;BME280;67988;60.086;30.354;2023-03-31T02:03:14;100617.16;;;-0.68;73.62
78673;BME280;67988;60.086;30.354;2023-03-31T02:05:44;100636.84;;;-0.58;73.97
78673;BME280;67988;60.086;30.354;2023-03-31T02:08:15;100635.41;;;-0.66;73.97
78673;BME280;67988;60.086;30.354;2023-03-31T02:10:47;100645.03;;;-0.68;73.97
78673;BME280;67988;60.086;30.354;2023-03-31T02:13:16;100634.34;;;-0.61;74.07
78673;BME280;67988;60.086;30.354;2023-03-31T02:15:47;100629.22;;;-0.65;74.06
78673;BME280;67988;60.086;30.354;2023-03-31T02:18:20;100623.09;;;-0.64;74.11
78673;BME280;67988;60.086;30.354;2023-03-31T02:20:52;100627.97;;;-0.54;73.66
78673;BME280;67988;60.086;30.354;2023-03-31T02:23:23;100626.50;;;-0.61;74.00
78673;BME280;67988;60.086;30.354;2023-03-31T02:25:59;100623.88;;;-0.61;73.94
78673;BME280;67988;60.086;30.354;2023-03-31T02:28:27;100619.16;;;-0.76;74.60
78673;BME280;67988;60.086;30.354;2023-03-31T02:31:05;100620.47;;;-0.63;74.30
78673;BME280;67988;60.086;30.354;2023-03-31T02:33:35;100614.84;;;-0.77;74.55
78673;BME280;67988;60.086;30.354;2023-03-31T02:36:04;100615.59;;;-0.73;74.40
78673;BME280;67988;60.086;30.354;2023-03-31T02:38:35;100618.94;;;-0.70;74.35
78673;BME280;67988;60.086;30.354;2023-03-31T02:41:05;100615.47;;;-0.70;74.48
78673;BME280;67988;60.086;30.354;2023-03-31T02:43:33;100617.84;;;-0.63;74.33
78673;BME280;67988;60.086;30.354;2023-03-31T02:46:00;100613.56;;;-0.65;74.37
78673;BME280;67988;60.086;30.354;2023-03-31T02:48:32;100616.09;;;-0.62;74.24
78673;BME280;67988;60.086;30.354;2023-03-31T02:54:12;100614.34;;;-0.62;74.26
78673;BME280;67988;60.086;30.354;2023-03-31T02:57:13;100608.59;;;-0.73;74.77
78673;BME280;67988;60.086;30.354;2023-03-31T02:59:50;100615.03;;;-0.57;74.49
78673;BME280;67988;60.086;30.354;2023-03-31T03:02:31;100611.41;;;-0.53;74.53
78673;BME280;67988;60.086;30.354;2023-03-31T03:05:23;100615.72;;;-0.52;74.38
78673;BME280;67988;60.086;30.354;2023-03-31T03:08:26;100609.97;;;-0.61;74.56
78673;BME280;67988;60.086;30.354;2023-03-31T03:11:02;100608.81;;;-0.54;74.43
78673;BME280;67988;60.086;30.354;2023-03-31T03:13:35;100602.41;;;-0.44;74.24
78673;BME280;67988;60.086;30.354;2023-03-31T03:16:10;100602.97;;;-0.36;74.09
78673;BME280;67988;60.086;30.354;2023-03-31T03:18:43;100596.94;;;-0.38;73.99
78673;BME280;67988;60.086;30.354;2023-03-31T03:21:10;100599.53;;;-0.38;73.84
78673;BME280;67988;60.086;30.354;2023-03-31T03:23:37;100597.91;;;-0.40;73.94
78673;BME280;67988;60.086;30.354;2023-03-31T03:26:04;100593.97;;;-0.52;74.24
78673;BME280;67988;60.086;30.354;2023-03-31T03:28:31;100596.03;;;-0.37;74.04
78673;BME280;67988;60.086;30.354;2023-03-31T03:30:59;100592.63;;;-0.39;74.16
78673;BME280;67988;60.086;30.354;2023-03-31T03:33:26;100588.16;;;-0.35;74.18
78673;BME280;67988;60.086;30.354;2023-03-31T03:35:53;100577.03;;;-0.42;74.25
78673;BME280;67988;60.086;30.354;2023-03-31T03:38:20;100589.94;;;-0.37;74.01
78673;BME280;67988;60.086;30.354;2023-03-31T03:40:51;100552.19;;;-0.54;74.02
78673;BME280;67988;60.086;30.354;2023-03-31T03:43:18;100575.28;;;-0.42;74.07
78673;BME280;67988;60.086;30.354;2023-03-31T03:45:46;100583.09;;;-0.40;74.03
78673;BME280;67988;60.086;30.354;2023-03-31T03:48:15;100571.44;;;-0.31;73.81
78673;BME280;67988;60.086;30.354;2023-03-31T03:50:43;100572.47;;;-0.35;73.83
78673;BME280;67988;60.086;30.354;2023-03-31T03:53:11;100573.38;;;-0.36;73.89
78673;BME280;67988;60.086;30.354;2023-03-31T03:55:38;100578.34;;;-0.29;73.69
78673;BME280;67988;60.086;30.354;2023-03-31T03:58:05;100575.13;;;-0.37;73.82
78673;BME280;67988;60.086;30.354;2023-03-31T04:00:32;100575.19;;;-0.38;73.94
78673;BME280;67988;60.086;30.354;2023-03-31T04:02:59;100550.34;;;-0.50;73.64
78673;BME280;67988;60.086;30.354;2023-03-31T04:05:28;100582.09;;;-0.37;73.59
78673;BME280;67988;60.086;30.354;2023-03-31T04:07:55;100581.22;;;-0.36;73.63
78673;BME280;67988;60.086;30.354;2023-03-31T04:10:22;100579.22;;;-0.30;73.52
78673;BME280;67988;60.086;30.354;2023-03-31T04:12:49;100569.72;;;-0.32;73.58
78673;BME280;67988;60.086;30.354;2023-03-31T04:15:16;100573.16;;;-0.30;73.65
78673;BME280;67988;60.086;30.354;2023-03-31T04:17:43;100572.75;;;-0.20;73.40
78673;BME280;67988;60.086;30.354;2023-03-31T04:20:16;100567.03;;;-0.06;73.00
78673;BME280;67988;60.086;30.354;2023-03-31T04:22:44;100565.81;;;-0.21;73.02
78673;BME280;67988;60.086;30.354;2023-03-31T04:25:12;100565.56;;;-0.13;73.03
78673;BME280;67988;60.086;30.354;2023-03-31T04:27:41;100567.44;;;-0.17;73.07
78673;BME280;67988;60.086;30.354;2023-03-31T04:30:12;100565.56;;;-0.38;73.39
78673;BME280;67988;60.086;30.354;2023-03-31T04:32:47;100571.94;;;-0.22;73.25
78673;BME280;67988;60.086;30.354;2023-03-31T04:35:15;100566.59;;;-0.17;73.20
78673;BME280;67988;60.086;30.354;2023-03-31T04:37:44;100537.09;;;-0.46;73.36
78673;BME280;67988;60.086;30.354;2023-03-31T04:40:11;100557.03;;;-0.18;73.36
78673;BME280;67988;60.086;30.354;2023-03-31T04:42:38;100562.03;;;-0.12;73.17
78673;BME280;67988;60.086;30.354;2023-03-31T04:45:05;100556.69;;;-0.09;72.91
78673;BME280;67988;60.086;30.354;2023-03-31T04:47:32;100552.13;;;-0.04;72.97
78673;BME280;67988;60.086;30.354;2023-03-31T04:49:59;100556.22;;;0.03;72.51
78673;BME280;67988;60.086;30.354;2023-03-31T04:52:26;100553.41;;;0.09;72.41
78673;BME280;67988;60.086;30.354;2023-03-31T04:54:55;100552.13;;;-0.04;72.63
78673;BME280;67988;60.086;30.354;2023-03-31T04:57:22;100551.91;;;0.02;72.70
78673;BME280;67988;60.086;30.354;2023-03-31T04:59:49;100563.31;;;0.23;72.43
78673;BME280;67988;60.086;30.354;2023-03-31T05:02:15;100550.13;;;0.26;72.08
78673;BME280;67988;60.086;30.354;2023-03-31T05:04:48;100552.34;;;0.36;71.71
78673;BME280;67988;60.086;30.354;2023-03-31T05:07:15;100553.06;;;0.40;71.88
78673;BME280;67988;60.086;30.354;2023-03-31T05:09:43;100553.97;;;0.39;71.64
78673;BME280;67988;60.086;30.354;2023-03-31T05:12:11;100549.41;;;0.44;71.63
78673;BME280;67988;60.086;30.354;2023-03-31T05:14:38;100541.97;;;0.55;71.36
78673;BME280;67988;60.086;30.354;2023-03-31T05:17:05;100542.16;;;0.51;71.37
78673;BME280;67988;60.086;30.354;2023-03-31T05:19:32;100544.38;;;0.61;71.00
78673;BME280;67988;60.086;30.354;2023-03-31T05:21:59;100539.56;;;0.51;71.07
78673;BME280;67988;60.086;30.354;2023-03-31T05:24:26;100538.94;;;0.66;71.08
78673;BME280;67988;60.086;30.354;2023-03-31T05:26:54;100535.19;;;0.51;71.26
78673;BME280;67988;60.086;30.354;2023-03-31T05:29:23;100529.84;;;0.54;70.97
78673;BME280;67988;60.086;30.354;2023-03-31T05:31:50;100531.03;;;0.67;70.80
78673;BME280;67988;60.086;30.354;2023-03-31T05:34:18;100526.88;;;0.83;70.19
78673;BME280;67988;60.086;30.354;2023-03-31T05:36:46;100538.22;;;0.84;70.32
78673;BME280;67988;60.086;30.354;2023-03-31T05:39:15;100530.91;;;0.92;70.03
78673;BME280;67988;60.086;30.354;2023-03-31T05:41:43;100521.50;;;1.08;69.69
78673;BME280;67988;60.086;30.354;2023-03-31T05:44:10;100529.81;;;1.18;69.26
78673;BME280;67988;60.086;30.354;2023-03-31T05:46:38;100527.84;;;1.23;69.02
78673;BME280;67988;60.086;30.354;2023-03-31T05:49:05;100522.53;;;1.24;69.03
78673;BME280;67988;60.086;30.354;2023-03-31T05:51:33;100524.63;;;1.16;68.85
78673;BME280;67988;60.086;30.354;2023-03-31T05:54:00;100523.72;;;1.17;69.02
78673;BME280;67988;60.086;30.354;2023-03-31T05:56:27;100515.91;;;1.36;68.52
78673;BME280;67988;60.086;30.354;2023-03-31T05:58:54;100516.22;;;1.49;68.12
78673;BME280;67988;60.086;30.354;2023-03-31T06:01:21;100520.25;;;1.76;67.51
78673;BME280;67988;60.086;30.354;2023-03-31T06:03:50;100510.75;;;1.74;67.28
78673;BME280;67988;60.086;30.354;2023-03-31T06:06:17;100507.50;;;1.87;67.13
78673;BME280;67988;60.086;30.354;2023-03-31T06:08:45;100508.50;;;2.03;66.57
78673;BME280;67988;60.086;30.354;2023-03-31T06:11:13;100506.88;;;2.01;66.19
78673;BME280;67988;60.086;30.354;2023-03-31T06:13:41;100517.16;;;2.05;66.24
78673;BME280;67988;60.086;30.354;2023-03-31T06:16:10;100512.19;;;2.18;65.86
78673;BME280;67988;60.086;30.354;2023-03-31T06:18:38;100510.28;;;2.22;65.83
78673;BME280;67988;60.086;30.354;2023-03-31T06:21:07;100512.44;;;2.31;65.43
78673;BME280;67988;60.086;30.354;2023-03-31T06:23:36;100509.47;;;2.38;65.47
78673;BME280;67988;60.086;30.354;2023-03-31T06:26:04;100503.31;;;2.39;65.31
78673;BME280;67988;60.086;30.354;2023-03-31T06:28:33;100498.75;;;2.24;65.69
78673;BME280;67988;60.086;30.354;2023-03-31T06:31:01;100486.50;;;2.25;65.36
78673;BME280;67988;60.086;30.354;2023-03-31T06:33:28;100501.59;;;2.38;65.04
78673;BME280;67988;60.086;30.354;2023-03-31T06:35:55;100500.75;;;2.38;64.89
78673;BME280;67988;60.086;30.354;2023-03-31T06:38:25;100499.94;;;2.55;64.54
78673;BME280;67988;60.086;30.354;2023-03-31T06:40:52;100501.25;;;2.63;64.30
78673;BME280;67988;60.086;30.354;2023-03-31T06:43:19;100494.41;;;2.95;63.84
78673;BME280;67988;60.086;30.354;2023-03-31T06:45:47;100493.78;;;2.90;63.45
78673;BME280;67988;60.086;30.354;2023-03-31T06:48:14;100485.53;;;2.98;63.42
78673;BME280;67988;60.086;30.354;2023-03-31T06:50:41;100485.38;;;3.01;63.26
78673;BME280;67988;60.086;30.354;2023-03-31T06:53:08;100493.97;;;3.04;62.85
78673;BME280;67988;60.086;30.354;2023-03-31T06:55:37;100493.13;;;3.21;62.58
78673;BME280;67988;60.086;30.354;2023-03-31T06:58:04;100474.84;;;3.01;62.42
78673;BME280;67988;60.086;30.354;2023-03-31T07:00:31;100490.38;;;3.22;62.37
78673;BME280;67988;60.086;30.354;2023-03-31T07:02:59;100486.88;;;3.39;61.90
78673;BME280;67988;60.086;30.354;2023-03-31T07:05:29;100486.28;;;3.17;62.22
78673;BME280;67988;60.086;30.354;2023-03-31T07:07:57;100480.97;;;3.18;62.28
78673;BME280;67988;60.086;30.354;2023-03-31T07:10:26;100488.59;;;3.23;62.20
78673;BME280;67988;60.086;30.354;2023-03-31T07:12:55;100487.84;;;3.21;62.45
78673;BME280;67988;60.086;30.354;2023-03-31T07:15:23;100490.00;;;3.13;62.33
78673;BME280;67988;60.086;30.354;2023-03-31T07:17:51;100492.03;;;3.08;62.45
78673;BME280;67988;60.086;30.354;2023-03-31T07:20:18;100481.13;;;3.15;62.47
78673;BME280;67988;60.086;30.354;2023-03-31T07:22:47;100478.34;;;3.18;62.77
78673;BME280;67988;60.086;30.354;2023-03-31T07:25:15;100477.88;;;3.10;62.69
78673;BME280;67988;60.086;30.354;2023-03-31T07:27:43;100480.72;;;3.06;63.15
78673;BME280;67988;60.086;30.354;2023-03-31T07:30:13;100477.66;;;3.15;62.10
78673;BME280;67988;60.086;30.354;2023-03-31T07:32:40;100487.94;;;3.19;62.56
78673;BME280;67988;60.086;30.354;2023-03-31T07:35:09;100473.22;;;3.32;61.77
78673;BME280;67988;60.086;30.354;2023-03-31T07:37:36;100474.91;;;3.33;61.77
78673;BME280;67988;60.086;30.354;2023-03-31T17:56:11;100403.66;;;-0.19;78.85
78673;BME280;67988;60.086;30.354;2023-03-31T17:58:40;100399.91;;;-0.12;79.16
78673;BME280;67988;60.086;30.354;2023-03-31T18:01:08;100403.63;;;0.04;79.56
78673;BME280;67988;60.086;30.354;2023-03-31T18:03:35;100410.13;;;0.16;79.75
78673;BME280;67988;60.086;30.354;2023-03-31T18:06:03;100398.03;;;0.33;79.61
78673;BME280;67988;60.086;30.354;2023-03-31T18:08:31;100393.31;;;0.43;79.75
78673;BME280;67988;60.086;30.354;2023-03-31T18:10:59;100395.97;;;0.41;78.96
78673;BME280;67988;60.086;30.354;2023-03-31T18:13:27;100396.50;;;0.50;78.98
78673;BME280;67988;60.086;30.354;2023-03-31T18:15:55;100397.34;;;0.50;78.38
78673;BME280;67988;60.086;30.354;2023-03-31T18:18:22;100393.38;;;0.41;78.06
78673;BME280;67988;60.086;30.354;2023-03-31T18:20:51;100395.69;;;0.49;77.96
78673;BME280;67988;60.086;30.354;2023-03-31T18:23:18;100381.38;;;0.56;77.93
78673;BME280;67988;60.086;30.354;2023-03-31T18:25:45;100382.13;;;0.60;77.73
78673;BME280;67988;60.086;30.354;2023-03-31T18:28:13;100381.34;;;0.58;77.53
78673;BME280;67988;60.086;30.354;2023-03-31T18:30:42;100383.91;;;0.59;77.10
78673;BME280;67988;60.086;30.354;2023-03-31T18:33:09;100385.50;;;0.62;77.00
78673;BME280;67988;60.086;30.354;2023-03-31T18:35:37;100384.06;;;0.55;77.09
78673;BME280;67988;60.086;30.354;2023-03-31T18:38:04;100384.59;;;0.63;76.79
78673;BME280;67988;60.086;30.354;2023-03-31T18:40:31;100381.34;;;0.58;76.61
78673;BME280;67988;60.086;30.354;2023-03-31T18:42:59;100374.94;;;0.65;76.40
78673;BME280;67988;60.086;30.354;2023-03-31T18:45:26;100380.34;;;0.60;76.42
78673;BME280;67988;60.086;30.354;2023-03-31T18:47:57;100374.78;;;0.68;76.22
78673;BME280;67988;60.086;30.354;2023-03-31T18:50:24;100374.13;;;0.63;76.41
78673;BME280;67988;60.086;30.354;2023-03-31T18:52:51;100377.47;;;0.66;76.20
78673;BME280;67988;60.086;30.354;2023-03-31T18:55:19;100380.06;;;0.66;76.16
78673;BME280;67988;60.086;30.354;2023-03-31T18:57:46;100382.78;;;0.65;75.94
78673;BME280;67988;60.086;30.354;2023-03-31T19:00:14;100377.56;;;0.65;75.97
78673;BME280;67988;60.086;30.354;2023-03-31T19:02:41;100386.16;;;0.67;75.80
78673;BME280;67988;60.086;30.354;2023-03-31T19:05:10;100389.91;;;0.61;75.73
78673;BME280;67988;60.086;30.354;2023-03-31T19:07:37;100393.38;;;0.62;75.63
78673;BME280;67988;60.086;30.354;2023-03-31T19:10:06;100395.22;;;0.60;75.90
78673;BME280;67988;60.086;30.354;2023-03-31T19:12:33;100396.66;;;0.67;75.63
78673;BME280;67988;60.086;30.354;2023-03-31T19:15:00;100393.13;;;0.68;75.54
78673;BME280;67988;60.086;30.354;2023-03-31T19:17:28;100397.28;;;0.72;75.47
78673;BME280;67988;60.086;30.354;2023-03-31T19:19:55;100395.78;;;0.66;75.29
78673;BME280;67988;60.086;30.354;2023-03-31T19:22:23;100391.59;;;0.62;75.35
78673;BME280;67988;60.086;30.354;2023-03-31T19:24:55;100389.19;;;0.58;75.66
78673;BME280;67988;60.086;30.354;2023-03-31T19:27:22;100388.06;;;0.63;75.28
78673;BME280;67988;60.086;30.354;2023-03-31T19:29:49;100390.03;;;0.58;75.10
78673;BME280;67988;60.086;30.354;2023-03-31T19:32:16;100389.91;;;0.61;75.41
78673;BME280;67988;60.086;30.354;2023-03-31T19:34:45;100382.03;;;0.61;75.23
78673;BME280;67988;60.086;30.354;2023-03-31T19:37:12;100390.56;;;0.66;75.20
78673;BME280;67988;60.086;30.354;2023-03-31T19:39:41;100390.00;;;0.60;75.48
78673;BME280;67988;60.086;30.354;2023-03-31T19:42:08;100383.09;;;0.57;74.94
78673;BME280;67988;60.086;30.354;2023-03-31T19:44:35;100371.50;;;0.43;75.28
78673;BME280;67988;60.086;30.354;2023-03-31T19:47:02;100376.41;;;0.30;75.85
78673;BME280;67988;60.086;30.354;2023-03-31T19:49:29;100381.97;;;0.43;75.80
78673;BME280;67988;60.086;30.354;2023-03-31T19:51:56;100374.19;;;0.41;75.35
78673;BME280;67988;60.086;30.354;2023-03-31T19:54:23;100364.97;;;0.32;75.50
78673;BME280;67988;60.086;30.354;2023-03-31T19:56:52;100374.97;;;0.43;75.87
78673;BME280;67988;60.086;30.354;2023-03-31T19:59:19;100370.72;;;0.40;75.63
78673;BME280;67988;60.086;30.354;2023-03-31T20:01:46;100373.06;;;0.26;76.15
78673;BME280;67988;60.086;30.354;2023-03-31T20:04:13;100367.31;;;0.38;75.98
78673;BME280;67988;60.086;30.354;2023-03-31T20:06:42;100374.44;;;0.55;75.53
78673;BME280;67988;60.086;30.354;2023-03-31T20:09:10;100372.03;;;0.51;75.48
78673;BME280;67988;60.086;30.354;2023-03-31T20:11:40;100378.38;;;0.45;75.72
78673;BME280;67988;60.086;30.354;2023-03-31T20:14:37;100367.50;;;0.34;75.86
78673;BME280;67988;60.086;30.354;2023-03-31T20:17:16;100368.91;;;0.43;75.92
78673;BME280;67988;60.086;30.354;2023-03-31T20:19:44;100362.41;;;0.51;75.64
78673;BME280;67988;60.086;30.354;2023-03-31T20:22:11;100363.41;;;0.49;75.33
78673;BME280;67988;60.086;30.354;2023-03-31T20:24:38;100367.25;;;0.40;75.71
78673;BME280;67988;60.086;30.354;2023-03-31T20:27:05;100369.41;;;0.51;75.62
78673;BME280;67988;60.086;30.354;2023-03-31T20:29:33;100369.81;;;0.41;75.77
78673;BME280;67988;60.086;30.354;2023-03-31T20:32:01;100376.41;;;0.50;75.75
78673;BME280;67988;60.086;30.354;2023-03-31T20:34:28;100370.88;;;0.58;75.64
78673;BME280;67988;60.086;30.354;2023-03-31T20:36:56;100368.56;;;0.50;75.61
78673;BME280;67988;60.086;30.354;2023-03-31T20:39:23;100376.41;;;0.50;75.90
78673;BME280;67988;60.086;30.354;2023-03-31T20:41:50;100382.44;;;0.52;75.61
78673;BME280;67988;60.086;30.354;2023-03-31T20:44:19;100376.09;;;0.58;75.53
78673;BME280;67988;60.086;30.354;2023-03-31T20:46:48;100369.03;;;0.60;75.49
78673;BME280;67988;60.086;30.354;2023-03-31T20:49:15;100375.84;;;0.44;75.68
78673;BME280;67988;60.086;30.354;2023-03-31T20:51:42;100371.31;;;0.47;75.83
78673;BME280;67988;60.086;30.354;2023-03-31T20:54:11;100375.25;;;0.57;75.47
78673;BME280;67988;60.086;30.354;2023-03-31T20:56:39;100363.81;;;0.60;75.36
78673;BME280;67988;60.086;30.354;2023-03-31T20:59:08;100372.44;;;0.62;75.39
78673;BME280;67988;60.086;30.354;2023-03-31T21:01:36;100368.00;;;0.64;75.34
78673;BME280;67988;60.086;30.354;2023-03-31T21:04:06;100366.81;;;0.71;75.42
78673;BME280;67988;60.086;30.354;2023-03-31T21:06:36;100368.69;;;0.67;75.11
78673;BME280;67988;60.086;30.354;2023-03-31T21:09:04;100312.34;;;0.18;75.33
78673;BME280;67988;60.086;30.354;2023-03-31T21:11:31;100364.91;;;0.54;75.34
78673;BME280;67988;60.086;30.354;2023-03-31T21:13:59;100372.44;;;0.62;74.97
78673;BME280;67988;60.086;30.354;2023-03-31T21:16:26;100369.88;;;0.60;74.93
78673;BME280;67988;60.086;30.354;2023-03-31T21:18:53;100368.66;;;0.49;75.14
78673;BME280;67988;60.086;30.354;2023-03-31T21:21:21;100370.41;;;0.48;75.54
78673;BME280;67988;60.086;30.354;2023-03-31T21:23:50;100372.13;;;0.49;75.44
78673;BME280;67988;60.086;30.354;2023-03-31T21:26:17;100370.16;;;0.54;75.08
78673;BME280;67988;60.086;30.354;2023-03-31T21:28:45;100370.00;;;0.57;75.23
78673;BME280;67988;60.086;30.354;2023-03-31T21:31:13;100364.38;;;0.66;74.99
78673;BME280;67988;60.086;30.354;2023-03-31T21:33:43;100377.91;;;0.56;75.18
78673;BME280;67988;60.086;30.354;2023-03-31T21:36:12;100365.47;;;0.61;74.92
78673;BME280;67988;60.086;30.354;2023-03-31T21:38:40;100368.09;;;0.40;75.33
78673;BME280;67988;60.086;30.354;2023-03-31T21:41:10;100363.56;;;0.44;75.42
78673;BME280;67988;60.086;30.354;2023-03-31T21:43:37;100363.97;;;0.35;75.60
78673;BME280;67988;60.086;30.354;2023-03-31T21:46:05;100359.28;;;0.43;75.83
78673;BME280;67988;60.086;30.354;2023-03-31T21:48:33;100361.09;;;0.41;75.34
78673;BME280;67988;60.086;30.354;2023-03-31T21:51:00;100360.84;;;0.47;75.18
78673;BME280;67988;60.086;30.354;2023-03-31T21:53:29;100364.44;;;0.45;75.54
78673;BME280;67988;60.086;30.354;2023-03-31T21:55:58;100359.78;;;0.31;75.49
78673;BME280;67988;60.086;30.354;2023-03-31T21:58:27;100361.34;;;0.35;75.58
78673;BME280;67988;60.086;30.354;2023-03-31T22:00:55;100365.72;;;0.34;75.68
78673;BME280;67988;60.086;30.354;2023-03-31T22:03:23;100363.59;;;0.02;76.27
78673;BME280;67988;60.086;30.354;2023-03-31T22:05:53;100368.63;;;0.07;76.24
78673;BME280;67988;60.086;30.354;2023-03-31T22:08:20;100357.00;;;0.14;76.23
78673;BME280;67988;60.086;30.354;2023-03-31T22:10:48;100352.75;;;0.11;76.33
78673;BME280;67988;60.086;30.354;2023-03-31T22:13:16;100356.72;;;0.21;76.15
78673;BME280;67988;60.086;30.354;2023-03-31T22:15:43;100353.34;;;0.18;75.99
78673;BME280;67988;60.086;30.354;2023-03-31T22:18:11;100352.91;;;0.28;76.01
78673;BME280;67988;60.086;30.354;2023-03-31T22:20:38;100353.16;;;0.22;75.87
78673;BME280;67988;60.086;30.354;2023-03-31T22:23:05;100344.06;;;0.11;76.12
78673;BME280;67988;60.086;30.354;2023-03-31T22:25:33;100351.53;;;0.20;76.23
78673;BME280;67988;60.086;30.354;2023-03-31T22:28:00;100358.38;;;0.22;76.00
78673;BME280;67988;60.086;30.354;2023-03-31T22:30:29;100356.44;;;0.27;76.07
78673;BME280;67988;60.086;30.354;2023-03-31T22:32:56;100352.50;;;0.17;75.96
78673;BME280;67988;60.086;30.354;2023-03-31T22:35:23;100346.25;;;0.21;76.24
78673;BME280;67988;60.086;30.354;2023-03-31T22:37:50;100347.66;;;0.28;75.96
78673;BME280;67988;60.086;30.354;2023-03-31T22:40:17;100349.13;;;0.35;75.72
78673;BME280;67988;60.086;30.354;2023-03-31T22:42:45;100348.47;;;0.30;75.91
78673;BME280;67988;60.086;30.354;2023-03-31T22:45:12;100343.28;;;0.29;76.23
78673;BME280;67988;60.086;30.354;2023-03-31T22:47:40;100349.09;;;0.15;76.16
78673;BME280;67988;60.086;30.354;2023-03-31T22:50:08;100348.72;;;0.24;76.16
78673;BME280;67988;60.086;30.354;2023-03-31T22:52:35;100350.38;;;0.27;76.42
78673;BME280;67988;60.086;30.354;2023-03-31T22:55:06;100340.72;;;0.27;76.19
78673;BME280;67988;60.086;30.354;2023-03-31T22:57:33;100332.97;;;0.26;76.19
78673;BME280;67988;60.086;30.354;2023-03-31T23:00:00;100340.63;;;0.30;76.25
78673;BME280;67988;60.086;30.354;2023-03-31T23:02:28;100338.13;;;0.27;76.31
78673;BME280;67988;60.086;30.354;2023-03-31T23:04:56;100344.19;;;0.28;76.47
78673;BME280;67988;60.086;30.354;2023-03-31T23:07:23;100338.22;;;0.04;76.47
78673;BME280;67988;60.086;30.354;2023-03-31T23:09:50;100339.75;;;0.10;76.73
78673;BME280;67988;60.086;30.354;2023-03-31T23:12:17;100331.50;;;0.19;76.71
78673;BME280;67988;60.086;30.354;2023-03-31T23:14:44;100337.53;;;0.21;76.50
78673;BME280;67988;60.086;30.354;2023-03-31T23:17:11;100331.03;;;0.09;76.56
78673;BME280;67988;60.086;30.354;2023-03-31T23:19:38;100329.59;;;0.02;76.78
78673;BME280;67988;60.086;30.354;2023-03-31T23:22:07;100325.00;;;0.07;76.57